PWSweather.com
Personal Weather Stations
Station Observations
DW1039
Liberty & Fairfield Townships, Hamilton, OH 45011

Liberty & Fairfield TownshipsHamilton, OH 45011

Lat: 39.3933, Lon: -84.477

Elevation: 780

Station Type: Davis Vantage Pro2 (Daytime Fan Aspirated)

http://www.lfweathercenter.com/

High Low Average
Temperature 42.4°F5.8°F 26.7°F-2.9°F 34.7°F1.5°F
Dew Point 29.7°F-1.3°F 18.3°F-7.6°F 23.0°F-5.0°F
Winds 15.0 mph NNE24.1 mph NNE Calm Calm 6.1 mph 9.8 mph
Wind Gusts 21.0 mph33.8 mph 5.0 mph8.0 mph 13.0 mph20.9 mph
Humidity 75% 48% 62%
Pressure 30.56 in1034.90 in 30.23 in1023.70 in -
Precipitation 0.00 in0.00 in - -
Hour Temp Dew Point Humidity Winds Wind Gusts Pressure Precip Precip Rate Daily Precip Total
12:00 AM 40.5°F4.7°C 29.7°F-1.3°C 65% 12.0 mph NW19.3 kmh NW 14.0 mph22.5 kmh 30.23 in1023.7 mb 0.00 in0.0 mm 0.00 in0.0 mm 0.00 in0.0 mm
12:10 AM 40.0°F4.4°C 28.4°F-2.0°C 63% 7.0 mph NW11.3 kmh NW 15.0 mph24.1 kmh 30.23 in1023.7 mb 0.00 in0.0 mm 0.00 in0.0 mm 0.00 in0.0 mm
12:20 AM 39.6°F4.2°C 27.7°F-2.4°C 62% 11.0 mph N17.7 kmh N 15.0 mph24.1 kmh 30.23 in1023.7 mb 0.00 in0.0 mm 0.00 in0.0 mm 0.00 in0.0 mm
12:30 AM 39.3°F4.1°C 27.0°F-2.8°C 61% 14.0 mph NNW22.5 kmh NNW 18.0 mph29.0 kmh 30.24 in1024.0 mb 0.00 in0.0 mm 0.00 in0.0 mm 0.00 in0.0 mm
12:40 AM 39.1°F3.9°C 26.8°F-2.9°C 61% 5.0 mph NNW8.0 kmh NNW 15.0 mph24.1 kmh 30.25 in1024.4 mb 0.00 in0.0 mm 0.00 in0.0 mm 0.00 in0.0 mm
12:50 AM 38.4°F3.6°C 26.9°F-2.8°C 63% 4.0 mph N6.4 kmh N 14.0 mph22.5 kmh 30.25 in1024.4 mb 0.00 in0.0 mm 0.00 in0.0 mm 0.00 in0.0 mm
01:00 AM 38.2°F3.4°C 27.1°F-2.7°C 64% 6.0 mph NNW9.7 kmh NNW 15.0 mph24.1 kmh 30.26 in1024.7 mb 0.00 in0.0 mm 0.00 in0.0 mm 0.00 in0.0 mm
01:10 AM 37.9°F3.3°C 27.2°F-2.7°C 65% 10.0 mph N16.1 kmh N 14.0 mph22.5 kmh 30.26 in1024.7 mb 0.00 in0.0 mm 0.00 in0.0 mm 0.00 in0.0 mm
01:20 AM 37.7°F3.2°C 27.4°F-2.6°C 66% 3.0 mph N4.8 kmh N 15.0 mph24.1 kmh 30.27 in1025.1 mb 0.00 in0.0 mm 0.00 in0.0 mm 0.00 in0.0 mm
01:30 AM 37.4°F3.0°C 27.1°F-2.7°C 66% 14.0 mph N22.5 kmh N 21.0 mph33.8 kmh 30.27 in1025.1 mb 0.00 in0.0 mm 0.00 in0.0 mm 0.00 in0.0 mm
01:40 AM 37.1°F2.8°C 27.2°F-2.7°C 67% 11.0 mph NNE17.7 kmh NNE 15.0 mph24.1 kmh 30.28 in1025.4 mb 0.00 in0.0 mm 0.00 in0.0 mm 0.00 in0.0 mm
01:50 AM 36.8°F2.7°C 27.2°F-2.7°C 68% 10.0 mph N16.1 kmh N 15.0 mph24.1 kmh 30.28 in1025.4 mb 0.00 in0.0 mm 0.00 in0.0 mm 0.00 in0.0 mm
02:00 AM 36.3°F2.4°C 27.1°F-2.7°C 69% 14.0 mph N22.5 kmh N 17.0 mph27.4 kmh 30.29 in1025.7 mb 0.00 in0.0 mm 0.00 in0.0 mm 0.00 in0.0 mm
02:10 AM 36.0°F2.2°C 27.5°F-2.5°C 71% 11.0 mph NNW17.7 kmh NNW 12.0 mph19.3 kmh 30.30 in1026.1 mb 0.00 in0.0 mm 0.00 in0.0 mm 0.00 in0.0 mm
02:20 AM 35.7°F2.1°C 27.6°F-2.4°C 72% 6.0 mph NNE9.7 kmh NNE 19.0 mph30.6 kmh 30.30 in1026.1 mb 0.00 in0.0 mm 0.00 in0.0 mm 0.00 in0.0 mm
02:30 AM 35.5°F1.9°C 27.7°F-2.4°C 73% 2.0 mph NE3.2 kmh NE 15.0 mph24.1 kmh 30.30 in1026.1 mb 0.00 in0.0 mm 0.00 in0.0 mm 0.00 in0.0 mm
02:40 AM 35.2°F1.8°C 27.8°F-2.3°C 74% 6.0 mph NE9.7 kmh NE 12.0 mph19.3 kmh 30.32 in1026.8 mb 0.00 in0.0 mm 0.00 in0.0 mm 0.00 in0.0 mm
02:51 AM 34.8°F1.6°C 27.7°F-2.4°C 75% 4.0 mph N6.4 kmh N 9.0 mph14.5 kmh 30.33 in1027.1 mb 0.00 in0.0 mm 0.00 in0.0 mm 0.00 in0.0 mm
03:01 AM 34.3°F1.3°C 26.6°F-3.0°C 73% 9.0 mph NNE14.5 kmh NNE 17.0 mph27.4 kmh 30.34 in1027.4 mb 0.00 in0.0 mm 0.00 in0.0 mm 0.00 in0.0 mm
03:10 AM 33.9°F1.1°C 25.2°F-3.8°C 70% 4.0 mph N6.4 kmh N 18.0 mph29.0 kmh 30.34 in1027.4 mb 0.00 in0.0 mm 0.00 in0.0 mm 0.00 in0.0 mm
03:20 AM 33.7°F0.9°C 24.6°F-4.1°C 69% 4.0 mph N6.4 kmh N 15.0 mph24.1 kmh 30.34 in1027.4 mb 0.00 in0.0 mm 0.00 in0.0 mm 0.00 in0.0 mm
03:30 AM 33.3°F0.7°C 24.2°F-4.3°C 69% 4.0 mph NNE6.4 kmh NNE 11.0 mph17.7 kmh 30.34 in1027.4 mb 0.00 in0.0 mm 0.00 in0.0 mm 0.00 in0.0 mm
03:40 AM 33.0°F0.6°C 24.3°F-4.3°C 70% 6.0 mph N9.7 kmh N 13.0 mph20.9 kmh 30.35 in1027.8 mb 0.00 in0.0 mm 0.00 in0.0 mm 0.00 in0.0 mm
03:50 AM 32.9°F0.5°C 24.2°F-4.3°C 70% 5.0 mph N8.0 kmh N 15.0 mph24.1 kmh 30.35 in1027.8 mb 0.00 in0.0 mm 0.00 in0.0 mm 0.00 in0.0 mm
04:00 AM 32.7°F0.4°C 23.7°F-4.6°C 69% 8.0 mph NNE12.9 kmh NNE 17.0 mph27.4 kmh 30.35 in1027.8 mb 0.00 in0.0 mm 0.00 in0.0 mm 0.00 in0.0 mm
04:10 AM 32.3°F0.2°C 23.6°F-4.7°C 70% 4.0 mph NNE6.4 kmh NNE 12.0 mph19.3 kmh 30.35 in1027.8 mb 0.00 in0.0 mm 0.00 in0.0 mm 0.00 in0.0 mm
04:20 AM 32.0°F0.0°C 23.0°F-5.0°C 69% 8.0 mph N12.9 kmh N 20.0 mph32.2 kmh 30.35 in1027.8 mb 0.00 in0.0 mm 0.00 in0.0 mm 0.00 in0.0 mm
04:30 AM 31.9°F-0.1°C 22.2°F-5.4°C 67% 10.0 mph N16.1 kmh N 16.0 mph25.7 kmh 30.35 in1027.8 mb 0.00 in0.0 mm 0.00 in0.0 mm 0.00 in0.0 mm
04:40 AM 31.6°F-0.2°C 21.9°F-5.6°C 67% 11.0 mph N17.7 kmh N 14.0 mph22.5 kmh 30.35 in1027.8 mb 0.00 in0.0 mm 0.00 in0.0 mm 0.00 in0.0 mm
04:50 AM 31.2°F-0.4°C 22.2°F-5.4°C 69% 5.0 mph NNE8.0 kmh NNE 12.0 mph19.3 kmh 30.35 in1027.8 mb 0.00 in0.0 mm 0.00 in0.0 mm 0.00 in0.0 mm
05:00 AM 31.0°F-0.6°C 22.0°F-5.6°C 69% 4.0 mph N6.4 kmh N 13.0 mph20.9 kmh 30.36 in1028.1 mb 0.00 in0.0 mm 0.00 in0.0 mm 0.00 in0.0 mm
05:10 AM 30.7°F-0.7°C 21.8°F-5.7°C 69% 9.0 mph N14.5 kmh N 16.0 mph25.7 kmh 30.36 in1028.1 mb 0.00 in0.0 mm 0.00 in0.0 mm 0.00 in0.0 mm
05:20 AM 30.6°F-0.8°C 21.7°F-5.7°C 69% 11.0 mph NNW17.7 kmh NNW 15.0 mph24.1 kmh 30.36 in1028.1 mb 0.00 in0.0 mm 0.00 in0.0 mm 0.00 in0.0 mm
05:30 AM 30.4°F-0.9°C 21.1°F-6.1°C 68% 12.0 mph NNW19.3 kmh NNW 14.0 mph22.5 kmh 30.37 in1028.4 mb 0.00 in0.0 mm 0.00 in0.0 mm 0.00 in0.0 mm
05:40 AM 30.2°F-1.0°C 20.9°F-6.2°C 68% 9.0 mph N14.5 kmh N 13.0 mph20.9 kmh 30.37 in1028.4 mb 0.00 in0.0 mm 0.00 in0.0 mm 0.00 in0.0 mm
05:50 AM 29.9°F-1.2°C 20.6°F-6.3°C 68% 4.0 mph N6.4 kmh N 16.0 mph25.7 kmh 30.37 in1028.4 mb 0.00 in0.0 mm 0.00 in0.0 mm 0.00 in0.0 mm
06:00 AM 29.5°F-1.4°C 20.6°F-6.3°C 69% 5.0 mph N8.0 kmh N 14.0 mph22.5 kmh 30.38 in1028.8 mb 0.00 in0.0 mm 0.00 in0.0 mm 0.00 in0.0 mm
06:10 AM 29.5°F-1.4°C 19.6°F-6.9°C 66% 12.0 mph N19.3 kmh N 18.0 mph29.0 kmh 30.38 in1028.8 mb 0.00 in0.0 mm 0.00 in0.0 mm 0.00 in0.0 mm
06:20 AM 29.3°F-1.5°C 19.7°F-6.8°C 67% 3.0 mph NNE4.8 kmh NNE 15.0 mph24.1 kmh 30.38 in1028.8 mb 0.00 in0.0 mm 0.00 in0.0 mm 0.00 in0.0 mm
06:30 AM 29.0°F-1.7°C 19.4°F-7.0°C 67% 7.0 mph NE11.3 kmh NE 16.0 mph25.7 kmh 30.39 in1029.1 mb 0.00 in0.0 mm 0.00 in0.0 mm 0.00 in0.0 mm
06:40 AM 28.9°F-1.7°C 19.3°F-7.1°C 67% 6.0 mph NNE9.7 kmh NNE 15.0 mph24.1 kmh 30.40 in1029.5 mb 0.00 in0.0 mm 0.00 in0.0 mm 0.00 in0.0 mm
06:50 AM 28.6°F-1.9°C 18.7°F-7.4°C 66% 7.0 mph N11.3 kmh N 19.0 mph30.6 kmh 30.40 in1029.5 mb 0.00 in0.0 mm 0.00 in0.0 mm 0.00 in0.0 mm
07:00 AM 28.2°F-2.1°C 18.3°F-7.6°C 66% 10.0 mph N16.1 kmh N 15.0 mph24.1 kmh 30.41 in1029.8 mb 0.00 in0.0 mm 0.00 in0.0 mm 0.00 in0.0 mm
07:10 AM 27.9°F-2.3°C 18.7°F-7.4°C 68% 5.0 mph NNE8.0 kmh NNE 12.0 mph19.3 kmh 30.41 in1029.8 mb 0.00 in0.0 mm 0.00 in0.0 mm 0.00 in0.0 mm
07:20 AM 27.7°F-2.4°C 18.9°F-7.3°C 69% 4.0 mph N6.4 kmh N 14.0 mph22.5 kmh 30.42 in1030.1 mb 0.00 in0.0 mm 0.00 in0.0 mm 0.00 in0.0 mm
07:30 AM 27.4°F-2.6°C 18.9°F-7.3°C 70% 13.0 mph NNE20.9 kmh NNE 16.0 mph25.7 kmh 30.43 in1030.5 mb 0.00 in0.0 mm 0.00 in0.0 mm 0.00 in0.0 mm
07:40 AM 27.1°F-2.7°C 18.6°F-7.4°C 70% 4.0 mph N6.4 kmh N 16.0 mph25.7 kmh 30.43 in1030.5 mb 0.00 in0.0 mm 0.00 in0.0 mm 0.00 in0.0 mm
07:50 AM 27.0°F-2.8°C 18.5°F-7.5°C 70% 10.0 mph ENE16.1 kmh ENE 14.0 mph22.5 kmh 30.44 in1030.8 mb 0.00 in0.0 mm 0.00 in0.0 mm 0.00 in0.0 mm
08:00 AM 26.7°F-2.9°C 18.3°F-7.6°C 70% 10.0 mph N16.1 kmh N 14.0 mph22.5 kmh 30.45 in1031.2 mb 0.00 in0.0 mm 0.00 in0.0 mm 0.00 in0.0 mm
08:10 AM 26.7°F-2.9°C 18.6°F-7.4°C 71% 11.0 mph NE17.7 kmh NE 14.0 mph22.5 kmh 30.45 in1031.2 mb 0.00 in0.0 mm 0.00 in0.0 mm 0.00 in0.0 mm
08:20 AM 26.9°F-2.8°C 18.8°F-7.3°C 71% 3.0 mph NNE4.8 kmh NNE 11.0 mph17.7 kmh 30.45 in1031.2 mb 0.00 in0.0 mm 0.00 in0.0 mm 0.00 in0.0 mm
08:30 AM 27.0°F-2.8°C 18.9°F-7.3°C 71% 6.0 mph NE9.7 kmh NE 14.0 mph22.5 kmh 30.46 in1031.5 mb 0.00 in0.0 mm 0.00 in0.0 mm 0.00 in0.0 mm
08:40 AM 27.3°F-2.6°C 19.2°F-7.1°C 71% 7.0 mph NE11.3 kmh NE 13.0 mph20.9 kmh 30.47 in1031.8 mb 0.00 in0.0 mm 0.00 in0.0 mm 0.00 in0.0 mm
08:50 AM 27.4°F-2.6°C 18.6°F-7.4°C 69% 4.0 mph ENE6.4 kmh ENE 19.0 mph30.6 kmh 30.48 in1032.2 mb 0.00 in0.0 mm 0.00 in0.0 mm 0.00 in0.0 mm
09:00 AM 28.0°F-2.2°C 19.2°F-7.1°C 69% 4.0 mph NE6.4 kmh NE 13.0 mph20.9 kmh 30.48 in1032.2 mb 0.00 in0.0 mm 0.00 in0.0 mm 0.00 in0.0 mm
09:10 AM 28.1°F-2.2°C 19.3°F-7.1°C 69% Calm Calm 14.0 mph22.5 kmh 30.49 in1032.5 mb 0.00 in0.0 mm 0.00 in0.0 mm 0.00 in0.0 mm
09:20 AM 28.2°F-2.1°C 19.0°F-7.2°C 68% 11.0 mph NE17.7 kmh NE 15.0 mph24.1 kmh 30.50 in1032.8 mb 0.00 in0.0 mm 0.00 in0.0 mm 0.00 in0.0 mm
09:30 AM 28.2°F-2.1°C 19.0°F-7.2°C 68% 7.0 mph ENE11.3 kmh ENE 17.0 mph27.4 kmh 30.50 in1032.8 mb 0.00 in0.0 mm 0.00 in0.0 mm 0.00 in0.0 mm
09:40 AM 28.4°F-2.0°C 19.5°F-6.9°C 69% 6.0 mph ENE9.7 kmh ENE 13.0 mph20.9 kmh 30.50 in1032.8 mb 0.00 in0.0 mm 0.00 in0.0 mm 0.00 in0.0 mm
09:50 AM 29.3°F-1.5°C 19.7°F-6.8°C 67% 6.0 mph E9.7 kmh E 15.0 mph24.1 kmh 30.51 in1033.2 mb 0.00 in0.0 mm 0.00 in0.0 mm 0.00 in0.0 mm
10:00 AM 29.0°F-1.7°C 19.1°F-7.2°C 66% 13.0 mph NE20.9 kmh NE 13.0 mph20.9 kmh 30.51 in1033.2 mb 0.00 in0.0 mm 0.00 in0.0 mm 0.00 in0.0 mm
10:10 AM 30.1°F-1.1°C 20.8°F-6.2°C 68% 4.0 mph NE6.4 kmh NE 13.0 mph20.9 kmh 30.51 in1033.2 mb 0.00 in0.0 mm 0.00 in0.0 mm 0.00 in0.0 mm
10:20 AM 30.6°F-0.8°C 20.3°F-6.5°C 65% 6.0 mph N9.7 kmh N 13.0 mph20.9 kmh 30.52 in1033.5 mb 0.00 in0.0 mm 0.00 in0.0 mm 0.00 in0.0 mm
10:30 AM 30.6°F-0.8°C 20.3°F-6.5°C 65% 6.0 mph ENE9.7 kmh ENE 17.0 mph27.4 kmh 30.52 in1033.5 mb 0.00 in0.0 mm 0.00 in0.0 mm 0.00 in0.0 mm
10:40 AM 31.2°F-0.4°C 20.8°F-6.2°C 65% 5.0 mph NE8.0 kmh NE 12.0 mph19.3 kmh 30.53 in1033.9 mb 0.00 in0.0 mm 0.00 in0.0 mm 0.00 in0.0 mm
10:50 AM 31.1°F-0.5°C 20.0°F-6.7°C 63% 7.0 mph NE11.3 kmh NE 15.0 mph24.1 kmh 30.54 in1034.2 mb 0.00 in0.0 mm 0.00 in0.0 mm 0.00 in0.0 mm
11:00 AM 31.8°F-0.1°C 21.4°F-5.9°C 65% 5.0 mph NE8.0 kmh NE 11.0 mph17.7 kmh 30.54 in1034.2 mb 0.00 in0.0 mm 0.00 in0.0 mm 0.00 in0.0 mm
11:10 AM 32.4°F0.2°C 21.2°F-6.0°C 63% 5.0 mph E8.0 kmh E 13.0 mph20.9 kmh 30.53 in1033.9 mb 0.00 in0.0 mm 0.00 in0.0 mm 0.00 in0.0 mm
11:20 AM 33.4°F0.8°C 22.6°F-5.2°C 64% 6.0 mph NE9.7 kmh NE 13.0 mph20.9 kmh 30.54 in1034.2 mb 0.00 in0.0 mm 0.00 in0.0 mm 0.00 in0.0 mm
11:30 AM 33.6°F0.9°C 22.0°F-5.6°C 62% 4.0 mph ENE6.4 kmh ENE 13.0 mph20.9 kmh 30.55 in1034.5 mb 0.00 in0.0 mm 0.00 in0.0 mm 0.00 in0.0 mm
11:40 AM 33.5°F0.8°C 22.3°F-5.4°C 63% 5.0 mph NE8.0 kmh NE 13.0 mph20.9 kmh 30.55 in1034.5 mb 0.00 in0.0 mm 0.00 in0.0 mm 0.00 in0.0 mm
11:50 AM 34.4°F1.3°C 23.1°F-4.9°C 63% 5.0 mph NE8.0 kmh NE 10.0 mph16.1 kmh 30.55 in1034.5 mb 0.00 in0.0 mm 0.00 in0.0 mm 0.00 in0.0 mm
12:00 PM 35.1°F1.7°C 23.0°F-5.0°C 61% 6.0 mph NE9.7 kmh NE 13.0 mph20.9 kmh 30.55 in1034.5 mb 0.00 in0.0 mm 0.00 in0.0 mm 0.00 in0.0 mm
12:10 PM 35.2°F1.8°C 22.7°F-5.2°C 60% 11.0 mph NE17.7 kmh NE 13.0 mph20.9 kmh 30.55 in1034.5 mb 0.00 in0.0 mm 0.00 in0.0 mm 0.00 in0.0 mm
12:20 PM 35.3°F1.8°C 22.4°F-5.3°C 59% 5.0 mph E8.0 kmh E 9.0 mph14.5 kmh 30.55 in1034.5 mb 0.00 in0.0 mm 0.00 in0.0 mm 0.00 in0.0 mm
12:30 PM 35.5°F1.9°C 23.4°F-4.8°C 61% 6.0 mph E9.7 kmh E 12.0 mph19.3 kmh 30.56 in1034.9 mb 0.00 in0.0 mm 0.00 in0.0 mm 0.00 in0.0 mm
12:40 PM 36.1°F2.3°C 22.8°F-5.1°C 58% 5.0 mph NE8.0 kmh NE 14.0 mph22.5 kmh 30.55 in1034.5 mb 0.00 in0.0 mm 0.00 in0.0 mm 0.00 in0.0 mm
12:50 PM 36.9°F2.7°C 24.3°F-4.3°C 60% 10.0 mph NNE16.1 kmh NNE 13.0 mph20.9 kmh 30.55 in1034.5 mb 0.00 in0.0 mm 0.00 in0.0 mm 0.00 in0.0 mm
01:00 PM 36.4°F2.4°C 23.1°F-4.9°C 58% 5.0 mph E8.0 kmh E 13.0 mph20.9 kmh 30.55 in1034.5 mb 0.00 in0.0 mm 0.00 in0.0 mm 0.00 in0.0 mm
01:10 PM 36.8°F2.7°C 24.2°F-4.3°C 60% 12.0 mph NE19.3 kmh NE 15.0 mph24.1 kmh 30.55 in1034.5 mb 0.00 in0.0 mm 0.00 in0.0 mm 0.00 in0.0 mm
01:20 PM 37.8°F3.2°C 24.4°F-4.2°C 58% 5.0 mph NE8.0 kmh NE 15.0 mph24.1 kmh 30.55 in1034.5 mb 0.00 in0.0 mm 0.00 in0.0 mm 0.00 in0.0 mm
01:30 PM 37.8°F3.2°C 23.5°F-4.7°C 56% 7.0 mph NNE11.3 kmh NNE 9.0 mph14.5 kmh 30.54 in1034.2 mb 0.00 in0.0 mm 0.00 in0.0 mm 0.00 in0.0 mm
01:40 PM 38.8°F3.8°C 26.1°F-3.3°C 60% 5.0 mph E8.0 kmh E 12.0 mph19.3 kmh 30.55 in1034.5 mb 0.00 in0.0 mm 0.00 in0.0 mm 0.00 in0.0 mm
01:50 PM 38.6°F3.7°C 24.7°F-4.1°C 57% 7.0 mph N11.3 kmh N 15.0 mph24.1 kmh 30.54 in1034.2 mb 0.00 in0.0 mm 0.00 in0.0 mm 0.00 in0.0 mm
02:00 PM 38.6°F3.7°C 23.8°F-4.6°C 55% 7.0 mph ENE11.3 kmh ENE 15.0 mph24.1 kmh 30.54 in1034.2 mb 0.00 in0.0 mm 0.00 in0.0 mm 0.00 in0.0 mm
02:10 PM 39.3°F4.1°C 25.4°F-3.7°C 57% 11.0 mph N17.7 kmh N 15.0 mph24.1 kmh 30.54 in1034.2 mb 0.00 in0.0 mm 0.00 in0.0 mm 0.00 in0.0 mm
02:20 PM 38.7°F3.7°C 23.5°F-4.7°C 54% 6.0 mph N9.7 kmh N 12.0 mph19.3 kmh 30.53 in1033.9 mb 0.00 in0.0 mm 0.00 in0.0 mm 0.00 in0.0 mm
02:30 PM 39.6°F4.2°C 25.6°F-3.6°C 57% 9.0 mph NE14.5 kmh NE 14.0 mph22.5 kmh 30.53 in1033.9 mb 0.00 in0.0 mm 0.00 in0.0 mm 0.00 in0.0 mm
02:40 PM 40.2°F4.6°C 25.3°F-3.7°C 55% 4.0 mph NE6.4 kmh NE 15.0 mph24.1 kmh 30.52 in1033.5 mb 0.00 in0.0 mm 0.00 in0.0 mm 0.00 in0.0 mm
02:50 PM 40.9°F4.9°C 26.0°F-3.3°C 55% 6.0 mph E9.7 kmh E 17.0 mph27.4 kmh 30.52 in1033.5 mb 0.00 in0.0 mm 0.00 in0.0 mm 0.00 in0.0 mm
03:00 PM 39.9°F4.4°C 24.6°F-4.1°C 54% 4.0 mph ENE6.4 kmh ENE 15.0 mph24.1 kmh 30.52 in1033.5 mb 0.00 in0.0 mm 0.00 in0.0 mm 0.00 in0.0 mm
03:10 PM 39.9°F4.4°C 25.5°F-3.6°C 56% 7.0 mph N11.3 kmh N 9.0 mph14.5 kmh 30.52 in1033.5 mb 0.00 in0.0 mm 0.00 in0.0 mm 0.00 in0.0 mm
03:20 PM 40.8°F4.9°C 26.3°F-3.2°C 56% 12.0 mph N19.3 kmh N 13.0 mph20.9 kmh 30.51 in1033.2 mb 0.00 in0.0 mm 0.00 in0.0 mm 0.00 in0.0 mm
03:30 PM 39.7°F4.3°C 24.0°F-4.4°C 53% Calm Calm 12.0 mph19.3 kmh 30.51 in1033.2 mb 0.00 in0.0 mm 0.00 in0.0 mm 0.00 in0.0 mm
03:40 PM 40.8°F4.9°C 25.9°F-3.4°C 55% 12.0 mph NE19.3 kmh NE 21.0 mph33.8 kmh 30.50 in1032.8 mb 0.00 in0.0 mm 0.00 in0.0 mm 0.00 in0.0 mm
03:50 PM 41.0°F5.0°C 25.2°F-3.8°C 53% 4.0 mph ENE6.4 kmh ENE 15.0 mph24.1 kmh 30.50 in1032.8 mb 0.00 in0.0 mm 0.00 in0.0 mm 0.00 in0.0 mm
04:00 PM 41.8°F5.4°C 26.4°F-3.1°C 54% 7.0 mph NE11.3 kmh NE 12.0 mph19.3 kmh 30.50 in1032.8 mb 0.00 in0.0 mm 0.00 in0.0 mm 0.00 in0.0 mm
04:10 PM 42.0°F5.6°C 26.1°F-3.3°C 53% 4.0 mph NE6.4 kmh NE 12.0 mph19.3 kmh 30.50 in1032.8 mb 0.00 in0.0 mm 0.00 in0.0 mm 0.00 in0.0 mm
04:20 PM 42.2°F5.7°C 25.9°F-3.4°C 52% 10.0 mph NE16.1 kmh NE 14.0 mph22.5 kmh 30.49 in1032.5 mb 0.00 in0.0 mm 0.00 in0.0 mm 0.00 in0.0 mm
04:30 PM 41.7°F5.4°C 24.5°F-4.2°C 50% 15.0 mph NNE24.1 kmh NNE 16.0 mph25.7 kmh 30.49 in1032.5 mb 0.00 in0.0 mm 0.00 in0.0 mm 0.00 in0.0 mm
04:40 PM 41.9°F5.5°C 26.0°F-3.3°C 53% 7.0 mph ENE11.3 kmh ENE 16.0 mph25.7 kmh 30.49 in1032.5 mb 0.00 in0.0 mm 0.00 in0.0 mm 0.00 in0.0 mm
04:50 PM 42.2°F5.7°C 25.9°F-3.4°C 52% 5.0 mph ENE8.0 kmh ENE 15.0 mph24.1 kmh 30.50 in1032.8 mb 0.00 in0.0 mm 0.00 in0.0 mm 0.00 in0.0 mm
05:00 PM 42.0°F5.6°C 24.7°F-4.1°C 50% 4.0 mph E6.4 kmh E 13.0 mph20.9 kmh 30.50 in1032.8 mb 0.00 in0.0 mm 0.00 in0.0 mm 0.00 in0.0 mm
05:10 PM 41.8°F5.4°C 24.1°F-4.4°C 49% 4.0 mph N6.4 kmh N 11.0 mph17.7 kmh 30.50 in1032.8 mb 0.00 in0.0 mm 0.00 in0.0 mm 0.00 in0.0 mm
05:20 PM 41.8°F5.4°C 25.0°F-3.9°C 51% 7.0 mph ENE11.3 kmh ENE 16.0 mph25.7 kmh 30.49 in1032.5 mb 0.00 in0.0 mm 0.00 in0.0 mm 0.00 in0.0 mm
05:30 PM 41.9°F5.5°C 24.2°F-4.3°C 49% 4.0 mph NE6.4 kmh NE 12.0 mph19.3 kmh 30.50 in1032.8 mb 0.00 in0.0 mm 0.00 in0.0 mm 0.00 in0.0 mm
05:40 PM 42.4°F5.8°C 25.1°F-3.8°C 50% 5.0 mph E8.0 kmh E 10.0 mph16.1 kmh 30.50 in1032.8 mb 0.00 in0.0 mm 0.00 in0.0 mm 0.00 in0.0 mm
05:50 PM 42.0°F5.6°C 24.2°F-4.3°C 49% 5.0 mph ENE8.0 kmh ENE 11.0 mph17.7 kmh 30.49 in1032.5 mb 0.00 in0.0 mm 0.00 in0.0 mm 0.00 in0.0 mm
06:00 PM 42.0°F5.6°C 24.2°F-4.3°C 49% 6.0 mph E9.7 kmh E 9.0 mph14.5 kmh 30.50 in1032.8 mb 0.00 in0.0 mm 0.00 in0.0 mm 0.00 in0.0 mm
06:10 PM 41.6°F5.3°C 23.4°F-4.8°C 48% Calm Calm 11.0 mph17.7 kmh 30.50 in1032.8 mb 0.00 in0.0 mm 0.00 in0.0 mm 0.00 in0.0 mm
06:20 PM 41.3°F5.2°C 23.1°F-4.9°C 48% 5.0 mph E8.0 kmh E 14.0 mph22.5 kmh 30.50 in1032.8 mb 0.00 in0.0 mm 0.00 in0.0 mm 0.00 in0.0 mm
06:30 PM 41.1°F5.1°C 22.9°F-5.1°C 48% 4.0 mph NE6.4 kmh NE 9.0 mph14.5 kmh 30.50 in1032.8 mb 0.00 in0.0 mm 0.00 in0.0 mm 0.00 in0.0 mm
06:40 PM 40.5°F4.7°C 22.4°F-5.3°C 48% 9.0 mph NE14.5 kmh NE 16.0 mph25.7 kmh 30.50 in1032.8 mb 0.00 in0.0 mm 0.00 in0.0 mm 0.00 in0.0 mm
06:50 PM 40.2°F4.6°C 23.5°F-4.7°C 51% 4.0 mph E6.4 kmh E 10.0 mph16.1 kmh 30.50 in1032.8 mb 0.00 in0.0 mm 0.00 in0.0 mm 0.00 in0.0 mm
07:00 PM 39.9°F4.4°C 22.8°F-5.1°C 50% 9.0 mph ESE14.5 kmh ESE 9.0 mph14.5 kmh 30.50 in1032.8 mb 0.00 in0.0 mm 0.00 in0.0 mm 0.00 in0.0 mm
07:10 PM 39.1°F3.9°C 22.5°F-5.3°C 51% 6.0 mph NE9.7 kmh NE 7.0 mph11.3 kmh 30.50 in1032.8 mb 0.00 in0.0 mm 0.00 in0.0 mm 0.00 in0.0 mm
07:20 PM 38.6°F3.7°C 22.5°F-5.3°C 52% Calm Calm 11.0 mph17.7 kmh 30.50 in1032.8 mb 0.00 in0.0 mm 0.00 in0.0 mm 0.00 in0.0 mm
07:30 PM 38.0°F3.3°C 22.4°F-5.3°C 53% 4.0 mph NE6.4 kmh NE 10.0 mph16.1 kmh 30.51 in1033.2 mb 0.00 in0.0 mm 0.00 in0.0 mm 0.00 in0.0 mm
07:40 PM 37.5°F3.1°C 21.9°F-5.6°C 53% 4.0 mph ENE6.4 kmh ENE 9.0 mph14.5 kmh 30.50 in1032.8 mb 0.00 in0.0 mm 0.00 in0.0 mm 0.00 in0.0 mm
07:50 PM 36.9°F2.7°C 22.3°F-5.4°C 55% 7.0 mph ENE11.3 kmh ENE 9.0 mph14.5 kmh 30.50 in1032.8 mb 0.00 in0.0 mm 0.00 in0.0 mm 0.00 in0.0 mm
08:00 PM 36.4°F2.4°C 22.2°F-5.4°C 56% 4.0 mph ENE6.4 kmh ENE 8.0 mph12.9 kmh 30.50 in1032.8 mb 0.00 in0.0 mm 0.00 in0.0 mm 0.00 in0.0 mm
08:10 PM 35.9°F2.2°C 22.2°F-5.4°C 57% 6.0 mph ENE9.7 kmh ENE 9.0 mph14.5 kmh 30.50 in1032.8 mb 0.00 in0.0 mm 0.00 in0.0 mm 0.00 in0.0 mm
08:20 PM 35.6°F2.0°C 22.7°F-5.2°C 59% Calm Calm 5.0 mph8.0 kmh 30.51 in1033.2 mb 0.00 in0.0 mm 0.00 in0.0 mm 0.00 in0.0 mm
08:33 PM 35.0°F1.7°C 22.5°F-5.3°C 60% 6.0 mph NE9.7 kmh NE 10.0 mph16.1 kmh 30.51 in1033.2 mb 0.00 in0.0 mm 0.00 in0.0 mm 0.00 in0.0 mm
08:40 PM 34.9°F1.6°C 22.4°F-5.3°C 60% 1.0 mph ENE1.6 kmh ENE 10.0 mph16.1 kmh 30.51 in1033.2 mb 0.00 in0.0 mm 0.00 in0.0 mm 0.00 in0.0 mm
08:50 PM 34.5°F1.4°C 22.8°F-5.1°C 62% Calm Calm 7.0 mph11.3 kmh 30.51 in1033.2 mb 0.00 in0.0 mm 0.00 in0.0 mm 0.00 in0.0 mm
09:00 PM 34.3°F1.3°C 22.7°F-5.2°C 62% 2.0 mph NE3.2 kmh NE 9.0 mph14.5 kmh 30.51 in1033.2 mb 0.00 in0.0 mm 0.00 in0.0 mm 0.00 in0.0 mm
09:10 PM 34.1°F1.2°C 22.5°F-5.3°C 62% 5.0 mph ENE8.0 kmh ENE 9.0 mph14.5 kmh 30.52 in1033.5 mb 0.00 in0.0 mm 0.00 in0.0 mm 0.00 in0.0 mm
09:20 PM 33.8°F1.0°C 22.6°F-5.2°C 63% 1.0 mph NE1.6 kmh NE 7.0 mph11.3 kmh 30.52 in1033.5 mb 0.00 in0.0 mm 0.00 in0.0 mm 0.00 in0.0 mm
09:30 PM 33.5°F0.8°C 22.3°F-5.4°C 63% 3.0 mph ENE4.8 kmh ENE 7.0 mph11.3 kmh 30.52 in1033.5 mb 0.00 in0.0 mm 0.00 in0.0 mm 0.00 in0.0 mm
09:40 PM 33.4°F0.8°C 22.2°F-5.4°C 63% 1.0 mph NE1.6 kmh NE 9.0 mph14.5 kmh 30.52 in1033.5 mb 0.00 in0.0 mm 0.00 in0.0 mm 0.00 in0.0 mm
09:50 PM 33.2°F0.7°C 22.4°F-5.3°C 64% 5.0 mph NE8.0 kmh NE 12.0 mph19.3 kmh 30.52 in1033.5 mb 0.00 in0.0 mm 0.00 in0.0 mm 0.00 in0.0 mm
10:00 PM 33.0°F0.6°C 22.2°F-5.4°C 64% Calm Calm 9.0 mph14.5 kmh 30.53 in1033.9 mb 0.00 in0.0 mm 0.00 in0.0 mm 0.00 in0.0 mm
10:10 PM 32.6°F0.3°C 22.2°F-5.4°C 65% Calm Calm 12.0 mph19.3 kmh 30.53 in1033.9 mb 0.00 in0.0 mm 0.00 in0.0 mm 0.00 in0.0 mm
10:20 PM 32.5°F0.3°C 22.1°F-5.5°C 65% 6.0 mph NE9.7 kmh NE 10.0 mph16.1 kmh 30.53 in1033.9 mb 0.00 in0.0 mm 0.00 in0.0 mm 0.00 in0.0 mm
10:30 PM 32.2°F0.1°C 21.8°F-5.7°C 65% 3.0 mph E4.8 kmh E 8.0 mph12.9 kmh 30.53 in1033.9 mb 0.00 in0.0 mm 0.00 in0.0 mm 0.00 in0.0 mm
10:40 PM 31.9°F-0.1°C 21.9°F-5.6°C 66% 7.0 mph N11.3 kmh N 7.0 mph11.3 kmh 30.53 in1033.9 mb 0.00 in0.0 mm 0.00 in0.0 mm 0.00 in0.0 mm
10:50 PM 31.6°F-0.2°C 21.9°F-5.6°C 67% 4.0 mph E6.4 kmh E 7.0 mph11.3 kmh 30.53 in1033.9 mb 0.00 in0.0 mm 0.00 in0.0 mm 0.00 in0.0 mm
11:00 PM 31.4°F-0.3°C 21.7°F-5.7°C 67% 4.0 mph E6.4 kmh E 9.0 mph14.5 kmh 30.53 in1033.9 mb 0.00 in0.0 mm 0.00 in0.0 mm 0.00 in0.0 mm
11:10 PM 31.2°F-0.4°C 21.9°F-5.6°C 68% 4.0 mph NE6.4 kmh NE 9.0 mph14.5 kmh 30.53 in1033.9 mb 0.00 in0.0 mm 0.00 in0.0 mm 0.00 in0.0 mm
11:20 PM 30.9°F-0.6°C 21.6°F-5.8°C 68% 3.0 mph ENE4.8 kmh ENE 10.0 mph16.1 kmh 30.53 in1033.9 mb 0.00 in0.0 mm 0.00 in0.0 mm 0.00 in0.0 mm
11:30 PM 30.7°F-0.7°C 21.4°F-5.9°C 68% 4.0 mph ENE6.4 kmh ENE 10.0 mph16.1 kmh 30.53 in1033.9 mb 0.00 in0.0 mm 0.00 in0.0 mm 0.00 in0.0 mm
11:40 PM 30.6°F-0.8°C 21.7°F-5.7°C 69% 5.0 mph NE8.0 kmh NE 12.0 mph19.3 kmh 30.53 in1033.9 mb 0.00 in0.0 mm 0.00 in0.0 mm 0.00 in0.0 mm
11:50 PM 30.5°F-0.8°C 21.6°F-5.8°C 69% Calm Calm 9.0 mph14.5 kmh 30.53 in1033.9 mb 0.00 in0.0 mm 0.00 in0.0 mm 0.00 in0.0 mm